sensor_id;sensor_type;location;lat;lon;timestamp;pressure;altitude;pressure_sealevel;temperature;humidity
68137;BME280;54939;50.826;9.030;2023-02-28T00:00:26;99849.00;;;5.86;60.29
68137;BME280;54939;50.826;9.030;2023-02-28T00:00:57;99855.16;;;5.86;60.58
68137;BME280;54939;50.826;9.030;2023-02-28T00:01:27;99857.81;;;5.86;60.59
68137;BME280;54939;50.826;9.030;2023-02-28T00:01:58;99850.78;;;5.85;60.70
68137;BME280;54939;50.826;9.030;2023-02-28T00:02:28;99853.44;;;5.85;60.46
68137;BME280;54939;50.826;9.030;2023-02-28T00:02:58;99855.16;;;5.86;60.33
68137;BME280;54939;50.826;9.030;2023-02-28T00:03:28;99850.63;;;5.88;60.71
68137;BME280;54939;50.826;9.030;2023-02-28T00:03:58;99849.69;;;5.89;60.72
68137;BME280;54939;50.826;9.030;2023-02-28T00:04:29;99852.25;;;5.91;60.22
68137;BME280;54939;50.826;9.030;2023-02-28T00:04:59;99854.13;;;5.89;60.53
68137;BME280;54939;50.826;9.030;2023-02-28T00:05:31;99853.28;;;5.88;60.32
68137;BME280;54939;50.826;9.030;2023-02-28T00:06:04;99851.59;;;5.87;60.38
68137;BME280;54939;50.826;9.030;2023-02-28T00:06:35;99851.59;;;5.87;60.34
68137;BME280;54939;50.826;9.030;2023-02-28T00:07:05;99856.91;;;5.87;60.53
68137;BME280;54939;50.826;9.030;2023-02-28T00:07:35;99849.00;;;5.86;60.61
68137;BME280;54939;50.826;9.030;2023-02-28T00:08:06;99850.72;;;5.87;60.33
68137;BME280;54939;50.826;9.030;2023-02-28T00:08:36;99850.72;;;5.87;60.36
68137;BME280;54939;50.826;9.030;2023-02-28T00:09:07;99852.41;;;5.88;60.41
68137;BME280;54939;50.826;9.030;2023-02-28T00:09:37;99848.25;;;5.84;60.33
68137;BME280;54939;50.826;9.030;2023-02-28T00:10:08;99848.94;;;5.87;60.27
68137;BME280;54939;50.826;9.030;2023-02-28T00:10:39;99849.69;;;5.89;60.46
68137;BME280;54939;50.826;9.030;2023-02-28T00:11:10;99850.72;;;5.87;60.54
68137;BME280;54939;50.826;9.030;2023-02-28T00:11:40;99850.72;;;5.87;60.68
68137;BME280;54939;50.826;9.030;2023-02-28T00:12:11;99847.13;;;5.88;60.27
68137;BME280;54939;50.826;9.030;2023-02-28T00:12:42;99851.59;;;5.87;60.26
68137;BME280;54939;50.826;9.030;2023-02-28T00:13:12;99844.56;;;5.86;60.35
68137;BME280;54939;50.826;9.030;2023-02-28T00:13:44;99845.41;;;5.87;60.47
68137;BME280;54939;50.826;9.030;2023-02-28T00:14:18;99843.69;;;5.86;60.25
68137;BME280;54939;50.826;9.030;2023-02-28T00:14:48;99849.84;;;5.86;60.18
68137;BME280;54939;50.826;9.030;2023-02-28T00:15:19;99849.00;;;5.86;60.44
68137;BME280;54939;50.826;9.030;2023-02-28T00:15:57;99845.50;;;5.85;60.48
68137;BME280;54939;50.826;9.030;2023-02-28T00:16:28;99846.44;;;5.84;60.72
68137;BME280;54939;50.826;9.030;2023-02-28T00:16:58;99848.16;;;5.85;60.59
68137;BME280;54939;50.826;9.030;2023-02-28T00:17:28;99851.59;;;5.87;60.51
68137;BME280;54939;50.826;9.030;2023-02-28T00:17:59;99849.69;;;5.89;60.59
68137;BME280;54939;50.826;9.030;2023-02-28T00:18:29;99847.13;;;5.88;60.45
68137;BME280;54939;50.826;9.030;2023-02-28T00:18:59;99848.94;;;5.87;60.33
68137;BME280;54939;50.826;9.030;2023-02-28T00:19:29;99852.50;;;5.86;60.47
68137;BME280;54939;50.826;9.030;2023-02-28T00:19:59;99850.72;;;5.87;60.48
68137;BME280;54939;50.826;9.030;2023-02-28T00:20:33;99849.69;;;5.89;60.44
68137;BME280;54939;50.826;9.030;2023-02-28T00:21:04;99854.97;;;5.89;60.65
68137;BME280;54939;50.826;9.030;2023-02-28T00:21:34;99846.28;;;5.87;60.28
68137;BME280;54939;50.826;9.030;2023-02-28T00:22:05;99853.34;;;5.87;60.36
68137;BME280;54939;50.826;9.030;2023-02-28T00:22:36;99843.66;;;5.87;60.38
68137;BME280;54939;50.826;9.030;2023-02-28T00:23:07;99848.94;;;5.87;60.38
68137;BME280;54939;50.826;9.030;2023-02-28T00:23:37;99845.41;;;5.87;60.30
68137;BME280;54939;50.826;9.030;2023-02-28T00:24:08;99842.00;;;5.85;60.55
68137;BME280;54939;50.826;9.030;2023-02-28T00:24:38;99848.16;;;5.85;60.21
68137;BME280;54939;50.826;9.030;2023-02-28T00:25:08;99843.78;;;5.84;60.56
68137;BME280;54939;50.826;9.030;2023-02-28T00:25:39;99851.75;;;5.84;60.37
68137;BME280;54939;50.826;9.030;2023-02-28T00:26:09;99850.88;;;5.84;60.36
68137;BME280;54939;50.826;9.030;2023-02-28T00:26:39;99845.59;;;5.84;60.54
68137;BME280;54939;50.826;9.030;2023-02-28T00:27:10;99846.44;;;5.84;60.24
68137;BME280;54939;50.826;9.030;2023-02-28T00:27:41;99851.75;;;5.84;60.63
68137;BME280;54939;50.826;9.030;2023-02-28T00:28:12;99847.22;;;5.86;60.57
68137;BME280;54939;50.826;9.030;2023-02-28T00:28:42;99848.16;;;5.85;60.25
68137;BME280;54939;50.826;9.030;2023-02-28T00:29:12;99850.88;;;5.84;60.57
68137;BME280;54939;50.826;9.030;2023-02-28T00:29:42;99849.19;;;5.83;60.37
68137;BME280;54939;50.826;9.030;2023-02-28T00:30:13;99845.69;;;5.82;60.66
68137;BME280;54939;50.826;9.030;2023-02-28T00:30:44;99845.59;;;5.84;60.58
68137;BME280;54939;50.826;9.030;2023-02-28T00:31:14;99844.72;;;5.83;60.80
68137;BME280;54939;50.826;9.030;2023-02-28T00:31:44;99840.28;;;5.84;60.34
68137;BME280;54939;50.826;9.030;2023-02-28T00:32:14;99848.25;;;5.84;60.33
68137;BME280;54939;50.826;9.030;2023-02-28T00:32:44;99844.66;;;5.85;60.37
68137;BME280;54939;50.826;9.030;2023-02-28T00:33:15;99851.75;;;5.84;60.40
68137;BME280;54939;50.826;9.030;2023-02-28T00:33:45;99854.38;;;5.84;60.44
68137;BME280;54939;50.826;9.030;2023-02-28T00:34:16;99849.38;;;5.80;60.80
68137;BME280;54939;50.826;9.030;2023-02-28T00:34:46;99850.03;;;5.83;60.68
68137;BME280;54939;50.826;9.030;2023-02-28T00:35:16;99847.47;;;5.82;60.82
68137;BME280;54939;50.826;9.030;2023-02-28T00:35:47;99847.47;;;5.82;60.22
68137;BME280;54939;50.826;9.030;2023-02-28T00:36:18;99852.69;;;5.83;60.72
68137;BME280;54939;50.826;9.030;2023-02-28T00:36:48;99846.53;;;5.83;60.46
68137;BME280;54939;50.826;9.030;2023-02-28T00:37:18;99848.25;;;5.84;60.28
68137;BME280;54939;50.826;9.030;2023-02-28T00:37:49;99850.88;;;5.84;60.28
68137;BME280;54939;50.826;9.030;2023-02-28T00:38:19;99846.44;;;5.84;60.35
68137;BME280;54939;50.826;9.030;2023-02-28T00:38:49;99845.59;;;5.84;60.45
68137;BME280;54939;50.826;9.030;2023-02-28T00:39:20;99845.59;;;5.84;60.16
68137;BME280;54939;50.826;9.030;2023-02-28T00:39:50;99847.38;;;5.83;60.57
68137;BME280;54939;50.826;9.030;2023-02-28T00:40:20;99853.63;;;5.82;60.34
68137;BME280;54939;50.826;9.030;2023-02-28T00:40:50;99841.22;;;5.83;60.63
68137;BME280;54939;50.826;9.030;2023-02-28T00:41:21;99845.59;;;5.84;60.25
68137;BME280;54939;50.826;9.030;2023-02-28T00:41:51;99839.44;;;5.83;60.56
68137;BME280;54939;50.826;9.030;2023-02-28T00:42:21;99848.16;;;5.85;60.24
68137;BME280;54939;50.826;9.030;2023-02-28T00:42:51;99843.78;;;5.84;60.46
68137;BME280;54939;50.826;9.030;2023-02-28T00:43:21;99849.19;;;5.83;60.49
68137;BME280;54939;50.826;9.030;2023-02-28T00:43:52;99845.59;;;5.84;60.52
68137;BME280;54939;50.826;9.030;2023-02-28T00:44:22;99846.53;;;5.83;60.48
68137;BME280;54939;50.826;9.030;2023-02-28T00:44:52;99850.97;;;5.82;60.44
68137;BME280;54939;50.826;9.030;2023-02-28T00:45:22;99847.47;;;5.82;60.54
68137;BME280;54939;50.826;9.030;2023-02-28T00:45:52;99847.47;;;5.82;60.85
68137;BME280;54939;50.826;9.030;2023-02-28T00:46:23;99844.72;;;5.83;60.50
68137;BME280;54939;50.826;9.030;2023-02-28T00:46:53;99844.72;;;5.83;60.46
68137;BME280;54939;50.826;9.030;2023-02-28T00:47:24;99843.88;;;5.83;60.32
68137;BME280;54939;50.826;9.030;2023-02-28T00:47:54;99844.72;;;5.83;60.41
68137;BME280;54939;50.826;9.030;2023-02-28T00:48:24;99842.19;;;5.82;60.16
68137;BME280;54939;50.826;9.030;2023-02-28T00:48:54;99843.03;;;5.82;60.34
68137;BME280;54939;50.826;9.030;2023-02-28T00:49:25;99843.97;;;5.81;60.69
68137;BME280;54939;50.826;9.030;2023-02-28T00:49:55;99841.31;;;5.81;60.65
68137;BME280;54939;50.826;9.030;2023-02-28T00:50:25;99844.81;;;5.82;60.38
68137;BME280;54939;50.826;9.030;2023-02-28T00:50:56;99840.47;;;5.81;60.31
68137;BME280;54939;50.826;9.030;2023-02-28T00:51:26;99844.81;;;5.82;60.42
68137;BME280;54939;50.826;9.030;2023-02-28T00:51:56;99841.22;;;5.83;60.54
68137;BME280;54939;50.826;9.030;2023-02-28T00:52:27;99842.28;;;5.80;60.37
68137;BME280;54939;50.826;9.030;2023-02-28T00:52:57;99840.59;;;5.79;60.39
68137;BME280;54939;50.826;9.030;2023-02-28T00:53:27;99837.09;;;5.79;60.33
68137;BME280;54939;50.826;9.030;2023-02-28T00:53:57;99845.03;;;5.79;60.56
68137;BME280;54939;50.826;9.030;2023-02-28T00:54:28;99845.88;;;5.79;60.28
68137;BME280;54939;50.826;9.030;2023-02-28T00:54:58;99845.88;;;5.79;60.67
68137;BME280;54939;50.826;9.030;2023-02-28T00:55:28;99843.25;;;5.79;60.37
68137;BME280;54939;50.826;9.030;2023-02-28T00:55:58;99845.75;;;5.81;60.54
68137;BME280;54939;50.826;9.030;2023-02-28T00:56:28;99845.69;;;5.82;60.46
68137;BME280;54939;50.826;9.030;2023-02-28T00:56:59;99847.38;;;5.83;60.38
68137;BME280;54939;50.826;9.030;2023-02-28T00:57:29;99845.69;;;5.82;60.33
68137;BME280;54939;50.826;9.030;2023-02-28T00:58:00;99844.94;;;5.80;60.24
68137;BME280;54939;50.826;9.030;2023-02-28T00:58:30;99845.75;;;5.81;60.67
68137;BME280;54939;50.826;9.030;2023-02-28T00:59:00;99847.47;;;5.82;60.42
68137;BME280;54939;50.826;9.030;2023-02-28T00:59:30;99846.63;;;5.81;60.49
68137;BME280;54939;50.826;9.030;2023-02-28T01:00:00;99848.41;;;5.81;60.36
68137;BME280;54939;50.826;9.030;2023-02-28T01:00:31;99845.69;;;5.82;60.57
68137;BME280;54939;50.826;9.030;2023-02-28T01:01:01;99853.53;;;5.84;60.25
68137;BME280;54939;50.826;9.030;2023-02-28T01:01:31;99846.53;;;5.83;60.24
68137;BME280;54939;50.826;9.030;2023-02-28T01:02:02;99842.94;;;5.84;60.49
68137;BME280;54939;50.826;9.030;2023-02-28T01:02:32;99845.59;;;5.84;60.17
68137;BME280;54939;50.826;9.030;2023-02-28T01:03:02;99849.84;;;5.86;60.34
68137;BME280;54939;50.826;9.030;2023-02-28T01:03:33;99845.59;;;5.84;60.20
68137;BME280;54939;50.826;9.030;2023-02-28T01:04:03;99841.22;;;5.83;60.40
68137;BME280;54939;50.826;9.030;2023-02-28T01:04:33;99846.63;;;5.81;60.19
68137;BME280;54939;50.826;9.030;2023-02-28T01:05:03;99843.97;;;5.81;60.37
68137;BME280;54939;50.826;9.030;2023-02-28T01:05:34;99847.59;;;5.80;60.36
68137;BME280;54939;50.826;9.030;2023-02-28T01:06:04;99843.25;;;5.79;60.17
68137;BME280;54939;50.826;9.030;2023-02-28T01:06:35;99842.28;;;5.80;60.37
68137;BME280;54939;50.826;9.030;2023-02-28T01:07:06;99846.75;;;5.80;60.34
68137;BME280;54939;50.826;9.030;2023-02-28T01:07:36;99845.88;;;5.79;60.34
68137;BME280;54939;50.826;9.030;2023-02-28T01:08:06;99843.97;;;5.81;60.10
68137;BME280;54939;50.826;9.030;2023-02-28T01:08:36;99844.94;;;5.80;60.54
68137;BME280;54939;50.826;9.030;2023-02-28T01:09:06;99842.19;;;5.82;60.16
68137;BME280;54939;50.826;9.030;2023-02-28T01:09:37;99844.94;;;5.80;60.54
68137;BME280;54939;50.826;9.030;2023-02-28T01:10:07;99851.19;;;5.79;60.10
68137;BME280;54939;50.826;9.030;2023-02-28T01:10:38;99850.25;;;5.80;60.44
68137;BME280;54939;50.826;9.030;2023-02-28T01:11:09;99849.38;;;5.80;60.21
68137;BME280;54939;50.826;9.030;2023-02-28T01:11:39;99844.09;;;5.80;60.53
68137;BME280;54939;50.826;9.030;2023-02-28T01:12:11;99852.91;;;5.80;60.33
68137;BME280;54939;50.826;9.030;2023-02-28T01:12:41;99845.03;;;5.79;60.11
68137;BME280;54939;50.826;9.030;2023-02-28T01:13:11;99837.94;;;5.79;60.44
68137;BME280;54939;50.826;9.030;2023-02-28T01:13:42;99845.97;;;5.78;60.46
68137;BME280;54939;50.826;9.030;2023-02-28T01:14:15;99845.13;;;5.77;60.13
68137;BME280;54939;50.826;9.030;2023-02-28T01:14:46;99846.84;;;5.78;60.11
68137;BME280;54939;50.826;9.030;2023-02-28T01:15:17;99853.06;;;5.77;60.17
68137;BME280;54939;50.826;9.030;2023-02-28T01:15:50;99849.47;;;5.78;60.14
68137;BME280;54939;50.826;9.030;2023-02-28T01:16:21;99851.19;;;5.79;60.18
68137;BME280;54939;50.826;9.030;2023-02-28T01:16:51;99846.75;;;5.80;60.25
68137;BME280;54939;50.826;9.030;2023-02-28T01:17:21;99852.91;;;5.80;60.38
68137;BME280;54939;50.826;9.030;2023-02-28T01:17:52;99845.75;;;5.81;60.39
68137;BME280;54939;50.826;9.030;2023-02-28T01:18:22;99850.25;;;5.80;60.50
68137;BME280;54939;50.826;9.030;2023-02-28T01:18:52;99845.75;;;5.81;60.54
68137;BME280;54939;50.826;9.030;2023-02-28T01:19:23;99847.59;;;5.80;60.44
68137;BME280;54939;50.826;9.030;2023-02-28T01:19:54;99850.25;;;5.80;60.24
68137;BME280;54939;50.826;9.030;2023-02-28T01:20:25;99845.75;;;5.81;59.98
68137;BME280;54939;50.826;9.030;2023-02-28T01:20:55;99851.06;;;5.81;60.01
68137;BME280;54939;50.826;9.030;2023-02-28T01:21:25;99849.28;;;5.81;60.40
68137;BME280;54939;50.826;9.030;2023-02-28T01:21:55;99850.25;;;5.80;60.12
68137;BME280;54939;50.826;9.030;2023-02-28T01:22:26;99848.53;;;5.79;60.26
68137;BME280;54939;50.826;9.030;2023-02-28T01:22:56;99850.25;;;5.80;60.38
68137;BME280;54939;50.826;9.030;2023-02-28T01:23:26;99852.91;;;5.80;60.33
68137;BME280;54939;50.826;9.030;2023-02-28T01:23:56;99844.94;;;5.80;60.12
68137;BME280;54939;50.826;9.030;2023-02-28T01:24:27;99845.69;;;5.82;60.20
68137;BME280;54939;50.826;9.030;2023-02-28T01:24:57;99854.47;;;5.83;60.31
68137;BME280;54939;50.826;9.030;2023-02-28T01:25:28;99848.31;;;5.82;60.23
68137;BME280;54939;50.826;9.030;2023-02-28T01:26:03;99857.13;;;5.83;59.95
68137;BME280;54939;50.826;9.030;2023-02-28T01:26:33;99842.19;;;5.82;60.42
68137;BME280;54939;50.826;9.030;2023-02-28T01:27:03;99846.63;;;5.81;59.88
68137;BME280;54939;50.826;9.030;2023-02-28T01:27:33;99847.59;;;5.80;60.03
68137;BME280;54939;50.826;9.030;2023-02-28T01:28:04;99854.69;;;5.80;60.30
68137;BME280;54939;50.826;9.030;2023-02-28T01:28:35;99848.41;;;5.81;60.51
68137;BME280;54939;50.826;9.030;2023-02-28T01:29:05;99852.91;;;5.80;60.06
68137;BME280;54939;50.826;9.030;2023-02-28T01:29:35;99848.41;;;5.81;60.32
68137;BME280;54939;50.826;9.030;2023-02-28T01:30:09;99847.59;;;5.80;60.17
68137;BME280;54939;50.826;9.030;2023-02-28T01:30:39;99852.03;;;5.80;60.50
68137;BME280;54939;50.826;9.030;2023-02-28T01:31:10;99850.25;;;5.80;60.07
68137;BME280;54939;50.826;9.030;2023-02-28T01:31:40;99850.25;;;5.80;60.14
68137;BME280;54939;50.826;9.030;2023-02-28T01:32:11;99852.03;;;5.80;60.44
68137;BME280;54939;50.826;9.030;2023-02-28T01:32:41;99844.94;;;5.80;60.26
68137;BME280;54939;50.826;9.030;2023-02-28T01:33:11;99854.69;;;5.80;60.11
68137;BME280;54939;50.826;9.030;2023-02-28T01:33:41;99850.34;;;5.79;60.08
68137;BME280;54939;50.826;9.030;2023-02-28T01:34:11;99848.53;;;5.79;60.32
68137;BME280;54939;50.826;9.030;2023-02-28T01:34:42;99846.91;;;5.77;60.40
68137;BME280;54939;50.826;9.030;2023-02-28T01:35:12;99852.22;;;5.77;60.04
68137;BME280;54939;50.826;9.030;2023-02-28T01:35:42;99845.97;;;5.78;60.10
68137;BME280;54939;50.826;9.030;2023-02-28T01:36:14;99853.84;;;5.79;60.51
68137;BME280;54939;50.826;9.030;2023-02-28T01:36:45;99851.28;;;5.78;60.28
68137;BME280;54939;50.826;9.030;2023-02-28T01:37:15;99851.19;;;5.79;60.18
68137;BME280;54939;50.826;9.030;2023-02-28T01:37:46;99853.06;;;5.77;60.37
68137;BME280;54939;50.826;9.030;2023-02-28T01:38:16;99848.63;;;5.78;60.28
68137;BME280;54939;50.826;9.030;2023-02-28T01:38:46;99850.41;;;5.77;60.07
68137;BME280;54939;50.826;9.030;2023-02-28T01:39:16;99849.47;;;5.78;60.12
68137;BME280;54939;50.826;9.030;2023-02-28T01:39:47;99853.84;;;5.79;60.14
68137;BME280;54939;50.826;9.030;2023-02-28T01:40:18;99850.25;;;5.80;60.30
68137;BME280;54939;50.826;9.030;2023-02-28T01:40:48;99854.69;;;5.80;60.33
68137;BME280;54939;50.826;9.030;2023-02-28T01:41:20;99844.09;;;5.80;59.91
68137;BME280;54939;50.826;9.030;2023-02-28T01:41:50;99850.34;;;5.79;60.15
68137;BME280;54939;50.826;9.030;2023-02-28T01:42:20;99847.78;;;5.77;60.33
68137;BME280;54939;50.826;9.030;2023-02-28T01:42:51;99845.22;;;5.76;60.12
68137;BME280;54939;50.826;9.030;2023-02-28T01:43:55;99841.63;;;5.77;60.52
68137;BME280;54939;50.826;9.030;2023-02-28T01:45:45;99856.56;;;5.78;60.23
68137;BME280;54939;50.826;9.030;2023-02-28T01:46:15;99852.97;;;5.79;60.36
68137;BME280;54939;50.826;9.030;2023-02-28T01:46:46;99846.84;;;5.78;60.23
68137;BME280;54939;50.826;9.030;2023-02-28T01:47:16;99848.63;;;5.78;60.37
68137;BME280;54939;50.826;9.030;2023-02-28T01:47:46;99840.69;;;5.78;60.11
68137;BME280;54939;50.826;9.030;2023-02-28T01:48:18;99846.91;;;5.77;60.29
68137;BME280;54939;50.826;9.030;2023-02-28T01:49:09;99841.63;;;5.77;60.62
68137;BME280;54939;50.826;9.030;2023-02-28T01:49:42;99847.78;;;5.77;60.34
68137;BME280;54939;50.826;9.030;2023-02-28T01:50:14;99838.78;;;5.80;60.15
68137;BME280;54939;50.826;9.030;2023-02-28T01:50:45;99838.03;;;5.78;60.38
68137;BME280;54939;50.826;9.030;2023-02-28T01:51:19;99842.47;;;5.77;60.28
68137;BME280;54939;50.826;9.030;2023-02-28T01:51:52;99839.72;;;5.79;60.23
68137;BME280;54939;50.826;9.030;2023-02-28T01:52:24;99838.97;;;5.77;60.02
68137;BME280;54939;50.826;9.030;2023-02-28T01:52:56;99836.31;;;5.77;60.57
68137;BME280;54939;50.826;9.030;2023-02-28T01:53:33;99837.25;;;5.76;60.33
68137;BME280;54939;50.826;9.030;2023-02-28T01:54:06;99834.53;;;5.77;60.29
68137;BME280;54939;50.826;9.030;2023-02-28T01:54:44;99833.75;;;5.75;60.40
68137;BME280;54939;50.826;9.030;2023-02-28T01:55:16;99836.41;;;5.75;60.54
68137;BME280;54939;50.826;9.030;2023-02-28T01:55:48;99825.81;;;5.75;60.22
68137;BME280;54939;50.826;9.030;2023-02-28T01:56:22;99832.81;;;5.76;60.09
68137;BME280;54939;50.826;9.030;2023-02-28T01:56:56;99837.09;;;5.79;60.39
68137;BME280;54939;50.826;9.030;2023-02-28T01:57:30;99832.81;;;5.76;60.20
68137;BME280;54939;50.826;9.030;2023-02-28T01:58:07;99831.03;;;5.77;60.12
68137;BME280;54939;50.826;9.030;2023-02-28T01:58:39;99832.91;;;5.75;60.40
68137;BME280;54939;50.826;9.030;2023-02-28T01:59:09;99831.88;;;5.77;60.29
68137;BME280;54939;50.826;9.030;2023-02-28T02:00:17;99823.94;;;5.77;60.55
68137;BME280;54939;50.826;9.030;2023-02-28T02:00:48;99832.81;;;5.76;60.38
68137;BME280;54939;50.826;9.030;2023-02-28T02:01:19;99829.31;;;5.76;60.44
68137;BME280;54939;50.826;9.030;2023-02-28T02:01:53;99830.16;;;5.76;59.98
68137;BME280;54939;50.826;9.030;2023-02-28T02:02:23;99829.13;;;5.79;60.11
68137;BME280;54939;50.826;9.030;2023-02-28T02:02:55;99826.47;;;5.79;60.37
68137;BME280;54939;50.826;9.030;2023-02-28T02:03:27;99832.72;;;5.78;59.99
68137;BME280;54939;50.826;9.030;2023-02-28T02:03:58;99831.88;;;5.77;60.30
68137;BME280;54939;50.826;9.030;2023-02-28T02:04:41;99820.34;;;5.78;60.39
68137;BME280;54939;50.826;9.030;2023-02-28T02:05:16;99818.63;;;5.77;60.04
68137;BME280;54939;50.826;9.030;2023-02-28T02:05:47;99823.94;;;5.77;60.00
68137;BME280;54939;50.826;9.030;2023-02-28T02:06:17;99817.78;;;5.77;60.08
68137;BME280;54939;50.826;9.030;2023-02-28T02:06:48;99821.28;;;5.77;60.45
68137;BME280;54939;50.826;9.030;2023-02-28T02:07:19;99823.94;;;5.77;60.12
68137;BME280;54939;50.826;9.030;2023-02-28T02:07:51;99817.84;;;5.75;60.02
68137;BME280;54939;50.826;9.030;2023-02-28T02:08:23;99817.84;;;5.75;60.40
68137;BME280;54939;50.826;9.030;2023-02-28T02:08:55;99816.16;;;5.74;60.30
68137;BME280;54939;50.826;9.030;2023-02-28T02:09:25;99825.06;;;5.73;60.04
68137;BME280;54939;50.826;9.030;2023-02-28T02:10:00;99813.63;;;5.73;59.99
68137;BME280;54939;50.826;9.030;2023-02-28T02:10:52;99810.97;;;5.73;60.22
68137;BME280;54939;50.826;9.030;2023-02-28T02:11:23;99814.56;;;5.72;60.17
68137;BME280;54939;50.826;9.030;2023-02-28T02:11:54;99816.38;;;5.71;60.14
68137;BME280;54939;50.826;9.030;2023-02-28T02:12:27;99812.69;;;5.74;60.50
68137;BME280;54939;50.826;9.030;2023-02-28T02:15:12;99822.50;;;5.72;60.23
68137;BME280;54939;50.826;9.030;2023-02-28T02:17:37;99817.22;;;5.72;60.18
68137;BME280;54939;50.826;9.030;2023-02-28T02:18:58;99811.06;;;5.71;60.46
68137;BME280;54939;50.826;9.030;2023-02-28T02:21:19;99814.28;;;5.76;60.37
68137;BME280;54939;50.826;9.030;2023-02-28T02:22:37;99815.22;;;5.75;60.31
68137;BME280;54939;50.826;9.030;2023-02-28T02:23:32;99807.38;;;5.74;60.04
68137;BME280;54939;50.826;9.030;2023-02-28T02:25:56;99815.13;;;5.77;60.14
68137;BME280;54939;50.826;9.030;2023-02-28T02:27:20;99809.81;;;5.77;60.05
68137;BME280;54939;50.826;9.030;2023-02-28T02:28:04;99805.47;;;5.76;59.83
68137;BME280;54939;50.826;9.030;2023-02-28T02:28:54;99805.47;;;5.76;59.99
68137;BME280;54939;50.826;9.030;2023-02-28T02:30:33;99809.72;;;5.78;60.16
68137;BME280;54939;50.826;9.030;2023-02-28T02:31:24;99801.03;;;5.76;60.16
68137;BME280;54939;50.826;9.030;2023-02-28T02:33:28;99796.66;;;5.75;59.97
68137;BME280;54939;50.826;9.030;2023-02-28T02:34:20;99800.25;;;5.74;60.00
68137;BME280;54939;50.826;9.030;2023-02-28T02:35:57;99802.34;;;5.69;59.98
68137;BME280;54939;50.826;9.030;2023-02-28T02:36:36;99800.56;;;5.70;60.38
68137;BME280;54939;50.826;9.030;2023-02-28T02:37:47;99802.25;;;5.71;60.10
68137;BME280;54939;50.826;9.030;2023-02-28T02:38:52;99795.25;;;5.70;60.35
68137;BME280;54939;50.826;9.030;2023-02-28T02:39:27;99801.31;;;5.72;60.04
68137;BME280;54939;50.826;9.030;2023-02-28T02:40:41;99802.34;;;5.69;59.82
68137;BME280;54939;50.826;9.030;2023-02-28T02:42:20;99799.63;;;5.71;59.99
68137;BME280;54939;50.826;9.030;2023-02-28T02:43:29;99799.53;;;5.72;60.06
68137;BME280;54939;50.826;9.030;2023-02-28T02:44:04;99799.53;;;5.72;59.95
68137;BME280;54939;50.826;9.030;2023-02-28T02:44:40;99804.63;;;5.75;59.78
68137;BME280;54939;50.826;9.030;2023-02-28T02:45:16;99801.97;;;5.75;60.07
68137;BME280;54939;50.826;9.030;2023-02-28T02:45:49;99798.59;;;5.73;59.92
68137;BME280;54939;50.826;9.030;2023-02-28T02:46:32;99802.19;;;5.72;60.17
68137;BME280;54939;50.826;9.030;2023-02-28T02:47:08;99801.41;;;5.70;60.13
68137;BME280;54939;50.826;9.030;2023-02-28T02:47:39;99802.25;;;5.71;60.25
68137;BME280;54939;50.826;9.030;2023-02-28T02:48:11;99798.84;;;5.69;60.30
68137;BME280;54939;50.826;9.030;2023-02-28T02:48:43;99792.69;;;5.68;60.10
68137;BME280;54939;50.826;9.030;2023-02-28T02:49:22;99804.16;;;5.69;60.29
68137;BME280;54939;50.826;9.030;2023-02-28T02:49:55;99801.41;;;5.70;59.99
68137;BME280;54939;50.826;9.030;2023-02-28T02:50:27;99805.09;;;5.68;60.25
68137;BME280;54939;50.826;9.030;2023-02-28T02:51:01;99800.66;;;5.68;60.08
68137;BME280;54939;50.826;9.030;2023-02-28T02:51:32;99800.56;;;5.70;59.94
68137;BME280;54939;50.826;9.030;2023-02-28T02:52:04;99801.50;;;5.69;60.07
68137;BME280;54939;50.826;9.030;2023-02-28T02:52:40;99798.00;;;5.68;60.26
68137;BME280;54939;50.826;9.030;2023-02-28T02:53:12;99802.19;;;5.72;59.94
68137;BME280;54939;50.826;9.030;2023-02-28T02:53:49;99800.47;;;5.71;59.71
68137;BME280;54939;50.826;9.030;2023-02-28T02:54:26;99796.78;;;5.74;59.94
68137;BME280;54939;50.826;9.030;2023-02-28T02:54:58;99797.72;;;5.73;59.89
68137;BME280;54939;50.826;9.030;2023-02-28T02:55:29;99803.13;;;5.71;60.01
68137;BME280;54939;50.826;9.030;2023-02-28T02:56:02;99801.41;;;5.70;59.86
68137;BME280;54939;50.826;9.030;2023-02-28T02:56:33;99800.56;;;5.70;60.05
68137;BME280;54939;50.826;9.030;2023-02-28T02:57:06;99799.69;;;5.69;59.88
68137;BME280;54939;50.826;9.030;2023-02-28T02:57:40;99804.91;;;5.71;60.05
68137;BME280;54939;50.826;9.030;2023-02-28T02:58:15;99804.06;;;5.70;59.66
68137;BME280;54939;50.826;9.030;2023-02-28T02:58:47;99797.91;;;5.70;59.86
68137;BME280;54939;50.826;9.030;2023-02-28T02:59:20;99802.34;;;5.69;59.92
68137;BME280;54939;50.826;9.030;2023-02-28T02:59:51;99803.28;;;5.68;60.09
68137;BME280;54939;50.826;9.030;2023-02-28T03:00:26;99805.75;;;5.71;59.69
68137;BME280;54939;50.826;9.030;2023-02-28T03:01:00;99799.63;;;5.71;59.80
68137;BME280;54939;50.826;9.030;2023-02-28T03:01:31;99803.22;;;5.70;59.87
68137;BME280;54939;50.826;9.030;2023-02-28T03:02:04;99797.16;;;5.68;59.59
68137;BME280;54939;50.826;9.030;2023-02-28T03:02:36;99801.59;;;5.67;60.04
68137;BME280;54939;50.826;9.030;2023-02-28T03:03:08;99803.41;;;5.67;59.90
68137;BME280;54939;50.826;9.030;2023-02-28T03:03:39;99804.25;;;5.67;59.79
68137;BME280;54939;50.826;9.030;2023-02-28T03:04:11;99806.88;;;5.67;59.82
68137;BME280;54939;50.826;9.030;2023-02-28T03:04:42;99801.72;;;5.66;59.85
68137;BME280;54939;50.826;9.030;2023-02-28T03:05:18;99806.88;;;5.67;59.59
68137;BME280;54939;50.826;9.030;2023-02-28T03:05:50;99807.75;;;5.68;59.97
68137;BME280;54939;50.826;9.030;2023-02-28T03:06:20;99804.25;;;5.67;59.71
68137;BME280;54939;50.826;9.030;2023-02-28T03:06:51;99805.22;;;5.66;59.95
68137;BME280;54939;50.826;9.030;2023-02-28T03:07:25;99806.16;;;5.65;59.57
68137;BME280;54939;50.826;9.030;2023-02-28T03:07:55;99809.66;;;5.66;59.80
68137;BME280;54939;50.826;9.030;2023-02-28T03:08:25;99806.16;;;5.65;59.82
68137;BME280;54939;50.826;9.030;2023-02-28T03:08:56;99808.81;;;5.65;59.89
68137;BME280;54939;50.826;9.030;2023-02-28T03:09:27;99803.59;;;5.64;59.92
68137;BME280;54939;50.826;9.030;2023-02-28T03:09:57;99807.09;;;5.64;59.98
68137;BME280;54939;50.826;9.030;2023-02-28T03:10:29;99813.25;;;5.65;59.61